createdAt,value
2017-05-03T00:00:27.731Z,0
2017-05-03T00:01:27.722Z,0
2017-05-03T00:02:27.711Z,0
2017-05-03T00:03:27.711Z,0
2017-05-03T00:04:27.391Z,0
2017-05-03T00:05:27.687Z,0
2017-05-03T00:06:27.676Z,0
2017-05-03T00:07:27.671Z,0
2017-05-03T00:08:27.661Z,0
2017-05-03T00:09:27.650Z,0
2017-05-03T00:10:27.640Z,0
2017-05-03T00:11:27.321Z,0
2017-05-03T00:12:27.619Z,0
2017-05-03T00:13:27.612Z,0
2017-05-03T00:14:27.603Z,0
2017-05-03T00:15:27.291Z,0
2017-05-03T00:16:27.615Z,0
2017-05-03T00:17:27.578Z,0
2017-05-03T00:18:27.565Z,0
2017-05-03T00:19:27.281Z,0
2017-05-03T00:20:27.543Z,0
2017-05-03T00:21:27.564Z,0
2017-05-03T00:22:27.523Z,0
2017-05-03T00:23:27.212Z,0
2017-05-03T00:24:27.511Z,0
2017-05-03T00:25:27.491Z,0
2017-05-03T00:26:27.488Z,0
2017-05-03T00:27:27.482Z,0
2017-05-03T00:28:27.467Z,0
2017-05-03T00:29:27.460Z,0
2017-05-03T00:30:27.451Z,0
2017-05-03T00:31:27.430Z,0
2017-05-03T00:32:27.428Z,0
2017-05-03T00:33:27.116Z,0
2017-05-03T00:34:27.414Z,0
2017-05-03T00:35:27.396Z,0
2017-05-03T00:36:27.385Z,0
2017-05-03T00:37:27.378Z,0
2017-05-03T00:38:27.421Z,0
2017-05-03T00:39:27.374Z,0
2017-05-03T00:40:27.352Z,0
2017-05-03T00:41:27.338Z,0
2017-05-03T00:42:26.724Z,0
2017-05-03T00:43:27.033Z,0
2017-05-03T00:44:27.310Z,0
2017-05-03T00:45:27.315Z,0
2017-05-03T00:46:27.288Z,0
2017-05-03T00:47:27.283Z,0
2017-05-03T00:48:27.276Z,0
2017-05-03T00:49:27.263Z,0
2017-05-03T00:50:27.249Z,0
2017-05-03T00:51:27.249Z,0
2017-05-03T00:52:26.626Z,0
2017-05-03T00:53:27.231Z,0
2017-05-03T00:54:26.914Z,0
2017-05-03T00:55:27.200Z,0
2017-05-03T00:56:26.895Z,0
2017-05-03T00:57:26.882Z,0
2017-05-03T00:58:27.174Z,0
2017-05-03T00:59:27.178Z,0
2017-05-03T01:00:26.848Z,0
2017-05-03T01:01:26.839Z,0
2017-05-03T01:02:26.837Z,0
2017-05-03T01:03:27.131Z,0
2017-05-03T01:04:27.115Z,0
2017-05-03T01:05:27.106Z,0
2017-05-03T01:06:27.092Z,0
2017-05-03T01:07:26.783Z,0
2017-05-03T01:08:27.087Z,0
2017-05-03T01:09:26.763Z,0
2017-05-03T01:10:27.062Z,0
2017-05-03T01:11:27.045Z,0
2017-05-03T01:12:26.731Z,0
2017-05-03T01:13:26.732Z,0
2017-05-03T01:14:26.717Z,0
2017-05-03T01:15:26.707Z,0
2017-05-03T01:16:26.693Z,0
2017-05-03T01:17:26.685Z,0
2017-05-03T01:18:26.675Z,0
2017-05-03T01:19:26.971Z,0
2017-05-03T01:20:26.960Z,0
2017-05-03T01:21:26.950Z,0
2017-05-03T01:22:26.944Z,0
2017-05-03T01:23:26.934Z,0
2017-05-03T01:24:26.623Z,0
2017-05-03T01:25:26.913Z,0
2017-05-03T01:26:26.927Z,0
2017-05-03T01:27:26.899Z,0
2017-05-03T01:28:26.881Z,0
2017-05-03T01:29:26.577Z,0
2017-05-03T01:30:26.557Z,0
2017-05-03T01:31:26.858Z,0
2017-05-03T01:32:26.845Z,0
2017-05-03T01:33:26.855Z,0
2017-05-03T01:34:26.833Z,0
2017-05-03T01:35:26.818Z,0
2017-05-03T01:36:26.818Z,0
2017-05-03T01:37:26.801Z,0
2017-05-03T01:38:26.801Z,0
2017-05-03T01:39:26.488Z,0
2017-05-03T01:40:26.771Z,0
2017-05-03T01:41:26.799Z,0
2017-05-03T01:42:26.789Z,0
2017-05-03T01:43:26.439Z,0
2017-05-03T01:44:26.432Z,0
2017-05-03T01:45:26.765Z,0
2017-05-03T01:46:26.717Z,0
2017-05-03T01:47:26.706Z,0
2017-05-03T01:48:26.698Z,0
2017-05-03T01:49:26.693Z,0
2017-05-03T01:50:26.382Z,0
2017-05-03T01:51:26.667Z,0
2017-05-03T01:52:26.659Z,0
2017-05-03T01:53:26.656Z,0
2017-05-03T01:54:26.654Z,0
2017-05-03T01:55:26.633Z,0
2017-05-03T01:56:26.327Z,0
2017-05-03T01:57:26.618Z,0
2017-05-03T01:58:26.612Z,0
2017-05-03T01:59:26.299Z,0
2017-05-03T02:00:26.590Z,0
2017-05-03T02:01:26.584Z,0
2017-05-03T02:02:26.572Z,0
2017-05-03T02:03:26.567Z,0
2017-05-03T02:04:26.559Z,0
2017-05-03T02:05:26.551Z,0
2017-05-03T02:06:26.533Z,0
2017-05-03T02:07:26.525Z,0
2017-05-03T02:08:26.529Z,0
2017-05-03T02:09:26.513Z,0
2017-05-03T02:10:26.506Z,0
2017-05-03T02:11:26.490Z,0
2017-05-03T02:12:26.486Z,0
2017-05-03T02:13:26.473Z,0
2017-05-03T02:14:26.498Z,0
2017-05-03T02:15:26.455Z,0
2017-05-03T02:16:26.446Z,0
2017-05-03T02:17:26.442Z,0
2017-05-03T02:18:26.435Z,0
2017-05-03T02:19:26.426Z,0
2017-05-03T02:20:26.667Z,0
2017-05-03T02:21:26.405Z,0
2017-05-03T02:22:26.399Z,0
2017-05-03T02:23:26.396Z,0
2017-05-03T02:24:26.444Z,0
2017-05-03T02:25:26.369Z,0
2017-05-03T02:26:26.363Z,0
2017-05-03T02:27:26.356Z,0
2017-05-03T02:28:26.358Z,0
2017-05-03T02:29:26.342Z,0
2017-05-03T02:30:26.330Z,0
2017-05-03T02:31:26.023Z,0
2017-05-03T02:32:26.313Z,0
2017-05-03T02:33:26.306Z,0
2017-05-03T02:34:26.300Z,0
2017-05-03T02:35:26.285Z,0
2017-05-03T02:36:26.290Z,0
2017-05-03T02:37:26.273Z,0
2017-05-03T02:38:26.263Z,0
2017-05-03T02:39:26.260Z,0
2017-05-03T02:40:26.248Z,0
2017-05-03T02:41:26.236Z,0
2017-05-03T02:42:26.234Z,0
2017-05-03T02:43:25.922Z,0
2017-05-03T02:44:26.215Z,0
2017-05-03T02:45:26.204Z,0
2017-05-03T02:46:26.204Z,0
2017-05-03T02:47:26.198Z,0
2017-05-03T02:48:26.185Z,0
2017-05-03T02:49:26.180Z,0
2017-05-03T02:50:26.164Z,0
2017-05-03T02:51:26.157Z,0
2017-05-03T02:52:26.150Z,0
2017-05-03T02:53:26.148Z,0
2017-05-03T02:54:26.135Z,0
2017-05-03T02:55:26.122Z,0
2017-05-03T02:56:26.116Z,0
2017-05-03T02:57:26.106Z,0
2017-05-03T02:58:25.798Z,0
2017-05-03T02:59:26.093Z,0
2017-05-03T03:00:26.384Z,0
2017-05-03T03:01:26.076Z,0
2017-05-03T03:02:26.065Z,0
2017-05-03T03:03:26.056Z,0
2017-05-03T03:04:26.089Z,0
2017-05-03T03:05:26.052Z,0
2017-05-03T03:06:26.034Z,0
2017-05-03T03:07:26.024Z,0
2017-05-03T03:08:26.020Z,0
2017-05-03T03:09:26.026Z,0
2017-05-03T03:10:26.001Z,0
2017-05-03T03:11:26.001Z,0
2017-05-03T03:12:25.982Z,0
2017-05-03T03:13:25.981Z,0
2017-05-03T03:14:25.976Z,0
2017-05-03T03:15:25.956Z,0
2017-05-03T03:16:25.952Z,0
2017-05-03T03:17:25.949Z,0
2017-05-03T03:18:25.964Z,0
2017-05-03T03:19:25.926Z,0
2017-05-03T03:20:25.920Z,0
2017-05-03T03:21:25.911Z,0
2017-05-03T03:22:25.603Z,0
2017-05-03T03:23:25.593Z,0
2017-05-03T03:24:25.888Z,0
2017-05-03T03:25:25.878Z,0
2017-05-03T03:26:25.906Z,0
2017-05-03T03:27:25.861Z,0
2017-05-03T03:28:25.859Z,5
2017-05-03T03:29:25.847Z,5
2017-05-03T03:30:25.836Z,5
2017-05-03T03:31:25.525Z,5
2017-05-03T03:32:25.825Z,5
2017-05-03T03:33:25.816Z,5
2017-05-03T03:34:25.811Z,5
2017-05-03T03:35:25.796Z,5
2017-05-03T03:36:25.792Z,5
2017-05-03T03:37:25.794Z,5
2017-05-03T03:38:25.787Z,5
2017-05-03T03:39:25.771Z,5
2017-05-03T03:40:25.759Z,5
2017-05-03T03:41:25.750Z,5
2017-05-03T03:42:25.737Z,5
2017-05-03T03:43:25.751Z,5
2017-05-03T03:44:25.439Z,10
2017-05-03T03:45:25.713Z,10
2017-05-03T03:46:25.709Z,10
2017-05-03T03:47:25.699Z,10
2017-05-03T03:48:25.704Z,10
2017-05-03T03:49:25.688Z,10
2017-05-03T03:50:25.682Z,10
2017-05-03T03:51:25.368Z,10
2017-05-03T03:52:25.051Z,10
2017-05-03T03:53:25.353Z,15
2017-05-03T03:54:25.348Z,15
2017-05-03T03:55:25.640Z,15
2017-05-03T03:56:25.630Z,15
2017-05-03T03:57:25.621Z,15
2017-05-03T03:58:25.616Z,15
2017-05-03T03:59:25.606Z,15
2017-05-03T04:00:25.591Z,20
2017-05-03T04:01:25.585Z,20
2017-05-03T04:02:25.581Z,20
2017-05-03T04:03:25.574Z,20
2017-05-03T04:04:25.570Z,20
2017-05-03T04:05:25.560Z,20
2017-05-03T04:06:25.551Z,20
2017-05-03T04:07:25.544Z,20
2017-05-03T04:08:25.532Z,25
2017-05-03T04:09:25.527Z,20
2017-05-03T04:10:25.512Z,20
2017-05-03T04:11:25.510Z,20
2017-05-03T04:12:25.499Z,20
2017-05-03T04:13:25.191Z,25
2017-05-03T04:14:25.180Z,25
2017-05-03T04:15:25.483Z,25
2017-05-03T04:16:25.474Z,25
2017-05-03T04:17:25.462Z,25
2017-05-03T04:18:25.452Z,25
2017-05-03T04:19:25.139Z,30
2017-05-03T04:20:25.430Z,30
2017-05-03T04:21:25.425Z,30
2017-05-03T04:22:25.415Z,30
2017-05-03T04:23:25.113Z,25
2017-05-03T04:24:25.407Z,25
2017-05-03T04:25:25.089Z,25
2017-05-03T04:26:25.385Z,30
2017-05-03T04:27:25.375Z,30
2017-05-03T04:28:25.371Z,30
2017-05-03T04:29:25.361Z,35
2017-05-03T04:30:25.353Z,35
2017-05-03T04:31:25.044Z,35
2017-05-03T04:32:25.337Z,35
2017-05-03T04:33:25.335Z,40
2017-05-03T04:34:25.325Z,40
2017-05-03T04:35:25.311Z,40
2017-05-03T04:36:25.308Z,40
2017-05-03T04:37:25.294Z,40
2017-05-03T04:38:24.987Z,40
2017-05-03T04:39:24.980Z,50
2017-05-03T04:40:25.002Z,60
2017-05-03T04:41:25.268Z,60
2017-05-03T04:42:24.956Z,60
2017-05-03T04:43:24.944Z,60
2017-05-03T04:44:25.240Z,55
2017-05-03T04:45:25.229Z,60
2017-05-03T04:46:24.618Z,70
2017-05-03T04:47:25.220Z,70
2017-05-03T04:48:25.223Z,70
2017-05-03T04:49:25.209Z,80
2017-05-03T04:50:25.191Z,80
2017-05-03T04:51:25.183Z,75
2017-05-03T04:52:25.180Z,80
2017-05-03T04:53:25.168Z,80
2017-05-03T04:54:25.186Z,95
2017-05-03T04:55:24.849Z,105
2017-05-03T04:56:24.845Z,100
2017-05-03T04:57:24.834Z,90
2017-05-03T04:58:24.529Z,95
2017-05-03T04:59:24.821Z,100
2017-05-03T05:00:24.809Z,100
2017-05-03T05:01:24.803Z,90
2017-05-03T05:02:24.795Z,95
2017-05-03T05:03:25.089Z,100
2017-05-03T05:04:24.777Z,100
2017-05-03T05:05:24.770Z,115
2017-05-03T05:06:24.761Z,105
2017-05-03T05:07:25.056Z,105
2017-05-03T05:08:24.747Z,110
2017-05-03T05:09:25.038Z,120
2017-05-03T05:10:24.727Z,140
2017-05-03T05:11:24.722Z,170
2017-05-03T05:12:25.015Z,180
2017-05-03T05:13:24.719Z,165
2017-05-03T05:14:24.708Z,155
2017-05-03T05:15:24.691Z,135
2017-05-03T05:16:24.684Z,140
2017-05-03T05:17:24.981Z,150
2017-05-03T05:18:24.975Z,155
2017-05-03T05:19:24.362Z,160
2017-05-03T05:20:24.665Z,155
2017-05-03T05:21:24.649Z,160
2017-05-03T05:22:24.335Z,165
2017-05-03T05:23:24.629Z,170
2017-05-03T05:24:24.322Z,170
2017-05-03T05:25:24.655Z,180
2017-05-03T05:26:24.004Z,185
2017-05-03T05:27:24.605Z,185
2017-05-03T05:28:24.899Z,175
2017-05-03T05:29:24.589Z,155
2017-05-03T05:30:24.583Z,145
2017-05-03T05:31:24.875Z,160
2017-05-03T05:32:24.565Z,150
2017-05-03T05:33:24.254Z,140
2017-05-03T05:34:24.245Z,145
2017-05-03T05:35:24.542Z,160
2017-05-03T05:36:24.538Z,175
2017-05-03T05:37:24.532Z,185
2017-05-03T05:38:24.832Z,170
2017-05-03T05:39:24.526Z,165
2017-05-03T05:40:24.517Z,175
2017-05-03T05:41:24.534Z,180
2017-05-03T05:42:24.805Z,195
2017-05-03T05:43:24.192Z,205
2017-05-03T05:44:24.793Z,200
2017-05-03T05:45:24.482Z,200
2017-05-03T05:46:24.767Z,195
2017-05-03T05:47:24.765Z,205
2017-05-03T05:48:24.755Z,230
2017-05-03T05:49:24.448Z,260
2017-05-03T05:50:24.447Z,280
2017-05-03T05:51:24.432Z,300
2017-05-03T05:52:24.423Z,325
2017-05-03T05:53:24.730Z,340
2017-05-03T05:54:24.429Z,315
2017-05-03T05:55:24.711Z,335
2017-05-03T05:56:24.101Z,310
2017-05-03T05:57:24.405Z,300
2017-05-03T05:58:24.388Z,275
2017-05-03T05:59:24.372Z,265
2017-05-03T06:00:24.380Z,280
2017-05-03T06:01:24.058Z,295
2017-05-03T06:02:24.676Z,320
2017-05-03T06:03:24.653Z,285
2017-05-03T06:04:24.344Z,255
2017-05-03T06:05:24.334Z,240
2017-05-03T06:06:24.988Z,310
2017-05-03T06:07:24.640Z,320
2017-05-03T06:08:24.627Z,295
2017-05-03T06:09:24.311Z,305
2017-05-03T06:10:24.604Z,295
2017-05-03T06:11:24.296Z,280
2017-05-03T06:12:24.596Z,275
2017-05-03T06:13:24.594Z,275
2017-05-03T06:14:24.584Z,260
2017-05-03T06:15:24.587Z,270
2017-05-03T06:16:24.571Z,285
2017-05-03T06:17:24.264Z,285
2017-05-03T06:18:24.557Z,265
2017-05-03T06:19:24.554Z,275
2017-05-03T06:20:24.246Z,280
2017-05-03T06:21:24.539Z,270
2017-05-03T06:22:24.543Z,265
2017-05-03T06:23:24.274Z,255
2017-05-03T06:24:24.527Z,275
2017-05-03T06:25:24.513Z,315
2017-05-03T06:26:24.511Z,325
2017-05-03T06:27:24.201Z,260
2017-05-03T06:28:24.507Z,265
2017-05-03T06:29:24.186Z,290
2017-05-03T06:30:24.489Z,290
2017-05-03T06:31:24.220Z,265
2017-05-03T06:32:24.474Z,205
2017-05-03T06:33:24.166Z,250
2017-05-03T06:34:24.465Z,255
2017-05-03T06:35:24.158Z,255
2017-05-03T06:36:24.450Z,265
2017-05-03T06:37:24.137Z,240
2017-05-03T06:38:24.478Z,240
2017-05-03T06:39:24.434Z,280
2017-05-03T06:40:24.423Z,310
2017-05-03T06:41:24.419Z,330
2017-05-03T06:42:24.416Z,375
2017-05-03T06:43:24.408Z,375
2017-05-03T06:44:24.099Z,355
2017-05-03T06:45:23.785Z,350
2017-05-03T06:46:24.082Z,325
2017-05-03T06:47:23.781Z,340
2017-05-03T06:48:24.377Z,355
2017-05-03T06:49:24.374Z,380
2017-05-03T06:50:24.373Z,435
2017-05-03T06:51:24.360Z,400
2017-05-03T06:52:24.350Z,375
2017-05-03T06:53:24.348Z,355
2017-05-03T06:54:24.038Z,340
2017-05-03T06:55:24.033Z,315
2017-05-03T06:56:24.025Z,350
2017-05-03T06:57:24.019Z,385
2017-05-03T06:58:24.318Z,365
2017-05-03T06:59:24.316Z,355
2017-05-03T07:00:24.302Z,340
2017-05-03T07:01:24.302Z,310
2017-05-03T07:02:24.291Z,285
2017-05-03T07:03:23.986Z,280
2017-05-03T07:04:24.283Z,280
2017-05-03T07:05:23.970Z,275
2017-05-03T07:06:24.271Z,280
2017-05-03T07:07:24.262Z,285
2017-05-03T07:08:24.286Z,290
2017-05-03T07:09:23.950Z,315
2017-05-03T07:10:24.255Z,335
2017-05-03T07:11:24.240Z,350
2017-05-03T07:12:23.933Z,305
2017-05-03T07:13:24.241Z,275
2017-05-03T07:14:24.226Z,290
2017-05-03T07:15:23.944Z,320
2017-05-03T07:16:24.213Z,335
2017-05-03T07:17:24.207Z,355
2017-05-03T07:18:24.203Z,410
2017-05-03T07:19:24.199Z,425
2017-05-03T07:20:23.885Z,410
2017-05-03T07:21:24.178Z,400
2017-05-03T07:22:24.173Z,415
2017-05-03T07:23:24.167Z,405
2017-05-03T07:24:24.164Z,370
2017-05-03T07:25:24.162Z,370
2017-05-03T07:26:24.154Z,385
2017-05-03T07:27:24.152Z,400
2017-05-03T07:28:24.140Z,390
2017-05-03T07:29:24.138Z,350
2017-05-03T07:30:24.130Z,340
2017-05-03T07:31:23.822Z,345
2017-05-03T07:32:23.817Z,385
2017-05-03T07:33:24.117Z,390
2017-05-03T07:34:24.109Z,390
2017-05-03T07:35:24.101Z,385
2017-05-03T07:36:23.792Z,415
2017-05-03T07:37:23.793Z,415
2017-05-03T07:38:24.092Z,410
2017-05-03T07:39:23.784Z,345
2017-05-03T07:40:24.073Z,340
2017-05-03T07:41:24.082Z,330
2017-05-03T07:42:24.105Z,330
2017-05-03T07:43:24.065Z,355
2017-05-03T07:44:23.754Z,395
2017-05-03T07:45:24.052Z,480
2017-05-03T07:46:24.044Z,465
2017-05-03T07:47:23.429Z,440
2017-05-03T07:48:24.038Z,455
2017-05-03T07:49:23.726Z,450
2017-05-03T07:50:23.718Z,400
2017-05-03T07:51:24.018Z,400
2017-05-03T07:52:24.014Z,445
2017-05-03T07:53:23.708Z,500
2017-05-03T07:54:23.699Z,455
2017-05-03T07:55:23.702Z,430
2017-05-03T07:56:23.996Z,450
2017-05-03T07:57:23.985Z,475
2017-05-03T07:58:23.978Z,515
2017-05-03T07:59:23.671Z,575
2017-05-03T08:00:23.667Z,555
2017-05-03T08:01:23.975Z,550
2017-05-03T08:02:23.658Z,545
2017-05-03T08:03:23.968Z,510
2017-05-03T08:04:23.650Z,505
2017-05-03T08:05:23.641Z,480
2017-05-03T08:06:23.644Z,495
2017-05-03T08:07:23.338Z,510
2017-05-03T08:08:23.328Z,520
2017-05-03T08:09:23.929Z,565
2017-05-03T08:10:23.626Z,640
2017-05-03T08:11:23.319Z,680
2017-05-03T08:12:23.615Z,820
2017-05-03T08:13:23.613Z,895
2017-05-03T08:14:23.604Z,780
2017-05-03T08:15:23.594Z,745
2017-05-03T08:16:23.541Z,820
2017-05-03T08:17:23.595Z,840
2017-05-03T08:18:23.286Z,960
2017-05-03T08:19:23.275Z,890
2017-05-03T08:20:23.621Z,805
2017-05-03T08:21:23.571Z,760
2017-05-03T08:22:23.266Z,770
2017-05-03T08:23:23.571Z,740
2017-05-03T08:24:23.566Z,715
2017-05-03T08:25:23.560Z,730
2017-05-03T08:26:23.859Z,670
2017-05-03T08:27:23.860Z,670
2017-05-03T08:28:23.854Z,655
2017-05-03T08:29:23.548Z,595
2017-05-03T08:30:23.844Z,595
2017-05-03T08:31:23.841Z,615
2017-05-03T08:32:23.844Z,715
2017-05-03T08:33:23.839Z,675
2017-05-03T08:34:23.838Z,610
2017-05-03T08:35:23.529Z,635
2017-05-03T08:36:23.830Z,695
2017-05-03T08:37:23.521Z,715
2017-05-03T08:38:23.517Z,675
2017-05-03T08:39:23.212Z,630
2017-05-03T08:40:23.820Z,730
2017-05-03T08:41:23.815Z,695
2017-05-03T08:42:22.903Z,640
2017-05-03T08:43:23.509Z,695
2017-05-03T08:44:23.200Z,705
2017-05-03T08:45:23.502Z,720
2017-05-03T08:46:23.806Z,730
2017-05-03T08:47:23.497Z,700
2017-05-03T08:48:23.794Z,685
2017-05-03T08:49:23.493Z,715
2017-05-03T08:50:23.181Z,715
2017-05-03T08:51:23.788Z,695
2017-05-03T08:52:23.781Z,705
2017-05-03T08:53:23.789Z,640
2017-05-03T08:54:23.779Z,600
2017-05-03T08:55:23.796Z,630
2017-05-03T08:56:23.771Z,590
2017-05-03T08:57:23.168Z,575
2017-05-03T08:58:23.767Z,560
2017-05-03T08:59:23.760Z,590
2017-05-03T09:00:23.762Z,595
2017-05-03T09:01:23.183Z,620
2017-05-03T09:02:23.459Z,650
2017-05-03T09:03:23.466Z,635
2017-05-03T09:04:23.454Z,600
2017-05-03T09:05:23.757Z,590
2017-05-03T09:06:23.749Z,570
2017-05-03T09:07:23.765Z,555
2017-05-03T09:08:23.757Z,555
2017-05-03T09:09:23.750Z,545
2017-05-03T09:10:23.440Z,545
2017-05-03T09:11:23.741Z,545
2017-05-03T09:12:23.735Z,535
2017-05-03T09:13:23.428Z,520
2017-05-03T09:14:22.823Z,515
2017-05-03T09:15:23.723Z,500
2017-05-03T09:16:23.723Z,495
2017-05-03T09:17:23.417Z,535
2017-05-03T09:18:23.418Z,550
2017-05-03T09:19:23.720Z,540
2017-05-03T09:20:23.716Z,550
2017-05-03T09:21:23.711Z,585
2017-05-03T09:22:23.710Z,575
2017-05-03T09:23:23.707Z,590
2017-05-03T09:24:23.704Z,580
2017-05-03T09:25:23.707Z,570
2017-05-03T09:26:23.701Z,575
2017-05-03T09:27:23.696Z,575
2017-05-03T09:28:23.694Z,595
2017-05-03T09:29:23.395Z,565
2017-05-03T09:30:23.085Z,560
2017-05-03T09:31:23.688Z,640
2017-05-03T09:32:23.685Z,665
2017-05-03T09:33:23.081Z,655
2017-05-03T09:34:23.381Z,740
2017-05-03T09:35:23.681Z,775
2017-05-03T09:36:23.679Z,770
2017-05-03T09:37:23.068Z,740
2017-05-03T09:38:23.674Z,740
2017-05-03T09:39:23.669Z,720
2017-05-03T09:40:23.670Z,750
2017-05-03T09:41:23.666Z,780
2017-05-03T09:42:23.363Z,840
2017-05-03T09:43:23.661Z,840
2017-05-03T09:44:23.659Z,830
2017-05-03T09:45:23.049Z,855
2017-05-03T09:46:23.653Z,910
2017-05-03T09:47:23.654Z,910
2017-05-03T09:48:23.658Z,865
2017-05-03T09:49:23.045Z,820
2017-05-03T09:50:23.653Z,840
2017-05-03T09:51:23.656Z,865
2017-05-03T09:52:23.654Z,880
2017-05-03T09:53:23.351Z,910
2017-05-03T09:54:23.644Z,875
2017-05-03T09:55:23.651Z,800
2017-05-03T09:56:23.343Z,845
2017-05-03T09:57:23.345Z,950
2017-05-03T09:58:23.344Z,910
2017-05-03T09:59:23.646Z,895
2017-05-03T10:00:23.343Z,880
2017-05-03T10:01:23.646Z,890
2017-05-03T10:02:23.338Z,900
2017-05-03T10:03:23.646Z,920
2017-05-03T10:04:23.644Z,950
2017-05-03T10:05:23.654Z,895
2017-05-03T10:06:23.643Z,840
2017-05-03T10:07:23.641Z,890
2017-05-03T10:08:23.652Z,855
2017-05-03T10:09:23.644Z,835
2017-05-03T10:10:23.684Z,770
2017-05-03T10:11:23.346Z,725
2017-05-03T10:12:23.347Z,690
2017-05-03T10:13:23.651Z,720
2017-05-03T10:14:23.351Z,780
2017-05-03T10:15:23.663Z,715
2017-05-03T10:16:23.680Z,685
2017-05-03T10:17:23.351Z,625
2017-05-03T10:18:23.353Z,605
2017-05-03T10:19:23.654Z,595
2017-05-03T10:20:23.659Z,600
2017-05-03T10:21:23.659Z,635
2017-05-03T10:22:23.659Z,730
2017-05-03T10:23:23.357Z,725
2017-05-03T10:24:23.664Z,690
2017-05-03T10:25:23.662Z,745
2017-05-03T10:26:23.668Z,725
2017-05-03T10:27:23.354Z,670
2017-05-03T10:28:23.658Z,690
2017-05-03T10:29:23.363Z,735
2017-05-03T10:30:23.357Z,815
2017-05-03T10:31:23.362Z,790
2017-05-03T10:32:23.360Z,740
2017-05-03T10:33:23.662Z,690
2017-05-03T10:34:23.356Z,630
2017-05-03T10:35:23.661Z,605
2017-05-03T10:36:23.665Z,580
2017-05-03T10:37:23.671Z,585
2017-05-03T10:38:23.364Z,615
2017-05-03T10:39:23.667Z,645
2017-05-03T10:40:23.666Z,655
2017-05-03T10:41:23.369Z,630
2017-05-03T10:42:23.661Z,535
2017-05-03T10:43:23.663Z,505
2017-05-03T10:44:23.666Z,520
2017-05-03T10:45:23.662Z,570
2017-05-03T10:46:23.611Z,545
2017-05-03T10:47:23.666Z,530
2017-05-03T10:48:23.664Z,485
2017-05-03T10:49:23.667Z,470
2017-05-03T10:50:23.059Z,560
2017-05-03T10:51:23.666Z,710
2017-05-03T10:52:23.663Z,760
2017-05-03T10:53:23.683Z,760
2017-05-03T10:54:23.659Z,730
2017-05-03T10:55:23.356Z,635
2017-05-03T10:56:23.911Z,565
2017-05-03T10:57:23.662Z,525
2017-05-03T10:58:23.664Z,525
2017-05-03T10:59:23.659Z,535
2017-05-03T11:00:23.659Z,560
2017-05-03T11:01:23.719Z,585
2017-05-03T11:02:23.656Z,605
2017-05-03T11:03:23.659Z,635
2017-05-03T11:04:23.655Z,635
2017-05-03T11:05:23.654Z,640
2017-05-03T11:06:23.657Z,655
2017-05-03T11:07:23.652Z,655
2017-05-03T11:08:23.653Z,630
2017-05-03T11:09:23.660Z,640
2017-05-03T11:10:23.650Z,680
2017-05-03T11:11:23.342Z,650
2017-05-03T11:12:23.349Z,745
2017-05-03T11:13:23.651Z,750
2017-05-03T11:14:23.648Z,745
2017-05-03T11:15:23.644Z,750
2017-05-03T11:16:23.339Z,745
2017-05-03T11:17:23.342Z,650
2017-05-03T11:18:23.346Z,590
2017-05-03T11:19:23.335Z,620
2017-05-03T11:20:23.340Z,630
2017-05-03T11:21:23.654Z,565
2017-05-03T11:22:23.335Z,560
2017-05-03T11:23:23.332Z,525
2017-05-03T11:24:23.336Z,445
2017-05-03T11:25:23.334Z,460
2017-05-03T11:26:23.032Z,505
2017-05-03T11:27:23.336Z,585
2017-05-03T11:28:23.640Z,565
2017-05-03T11:29:23.335Z,525
2017-05-03T11:30:23.029Z,555
2017-05-03T11:31:23.637Z,545
2017-05-03T11:32:23.636Z,520
2017-05-03T11:33:23.028Z,570
2017-05-03T11:34:23.643Z,630
2017-05-03T11:35:23.628Z,635
2017-05-03T11:36:23.630Z,675
2017-05-03T11:37:23.331Z,715
2017-05-03T11:38:23.627Z,620
2017-05-03T11:39:23.623Z,535
2017-05-03T11:40:23.848Z,510
2017-05-03T11:41:23.319Z,515
2017-05-03T11:42:23.320Z,600
2017-05-03T11:43:23.624Z,710
2017-05-03T11:44:23.622Z,790
2017-05-03T11:45:23.321Z,755
2017-05-03T11:46:23.320Z,710
2017-05-03T11:47:23.009Z,730
2017-05-03T11:48:23.318Z,670
2017-05-03T11:49:23.615Z,640
2017-05-03T11:50:23.619Z,640
2017-05-03T11:51:23.615Z,620
2017-05-03T11:52:23.614Z,570
2017-05-03T11:53:23.617Z,530
2017-05-03T11:54:23.610Z,560
2017-05-03T11:55:23.611Z,540
2017-05-03T11:56:23.613Z,575
2017-05-03T11:57:23.824Z,640
2017-05-03T11:58:23.610Z,600
2017-05-03T11:59:23.611Z,600
2017-05-03T12:00:23.607Z,570
2017-05-03T12:01:23.611Z,595
2017-05-03T12:02:23.608Z,600
2017-05-03T12:03:23.613Z,570
2017-05-03T12:04:23.611Z,525
2017-05-03T12:05:23.602Z,475
2017-05-03T12:06:23.610Z,440
2017-05-03T12:07:23.607Z,410
2017-05-03T12:08:23.609Z,445
2017-05-03T12:09:23.604Z,455
2017-05-03T12:10:23.609Z,425
2017-05-03T12:11:23.601Z,440
2017-05-03T12:12:23.596Z,485
2017-05-03T12:13:23.598Z,430
2017-05-03T12:14:23.594Z,485
2017-05-03T12:15:23.599Z,550
2017-05-03T12:16:23.592Z,585
2017-05-03T12:17:23.284Z,610
2017-05-03T12:18:23.589Z,645
2017-05-03T12:19:23.593Z,575
2017-05-03T12:20:23.602Z,600
2017-05-03T12:21:23.587Z,560
2017-05-03T12:22:23.586Z,500
2017-05-03T12:23:23.585Z,475
2017-05-03T12:24:23.578Z,465
2017-05-03T12:25:23.582Z,495
2017-05-03T12:26:23.576Z,495
2017-05-03T12:27:23.271Z,500
2017-05-03T12:28:23.573Z,450
2017-05-03T12:29:23.571Z,405
2017-05-03T12:30:23.575Z,425
2017-05-03T12:31:23.572Z,395
2017-05-03T12:32:23.263Z,375
2017-05-03T12:33:23.569Z,365
2017-05-03T12:34:23.578Z,360
2017-05-03T12:35:23.564Z,360
2017-05-03T12:36:23.581Z,365
2017-05-03T12:37:23.562Z,390
2017-05-03T12:38:23.256Z,405
2017-05-03T12:39:23.560Z,455
2017-05-03T12:40:23.252Z,500
2017-05-03T12:41:23.565Z,545
2017-05-03T12:42:23.251Z,555
2017-05-03T12:43:23.557Z,605
2017-05-03T12:44:23.266Z,635
2017-05-03T12:45:23.551Z,610
2017-05-03T12:46:23.549Z,565
2017-05-03T12:47:23.543Z,500
2017-05-03T12:48:23.542Z,480
2017-05-03T12:49:23.541Z,515
2017-05-03T12:50:23.538Z,610
2017-05-03T12:51:23.236Z,710
2017-05-03T12:52:23.535Z,640
2017-05-03T12:53:23.228Z,565
2017-05-03T12:54:23.538Z,510
2017-05-03T12:55:23.530Z,445
2017-05-03T12:56:23.226Z,435
2017-05-03T12:57:23.534Z,450
2017-05-03T12:58:23.526Z,480
2017-05-03T12:59:23.527Z,505
2017-05-03T13:00:23.220Z,540
2017-05-03T13:01:23.520Z,605
2017-05-03T13:02:23.216Z,645
2017-05-03T13:03:23.220Z,620
2017-05-03T13:04:23.216Z,610
2017-05-03T13:05:23.212Z,615
2017-05-03T13:06:22.911Z,590
2017-05-03T13:07:23.211Z,555
2017-05-03T13:08:23.508Z,500
2017-05-03T13:09:23.510Z,450
2017-05-03T13:10:23.507Z,475
2017-05-03T13:11:23.207Z,500
2017-05-03T13:12:23.203Z,505
2017-05-03T13:13:23.503Z,530
2017-05-03T13:14:23.200Z,565
2017-05-03T13:15:23.502Z,555
2017-05-03T13:16:23.502Z,555
2017-05-03T13:17:23.503Z,545
2017-05-03T13:18:23.194Z,535
2017-05-03T13:19:23.192Z,510
2017-05-03T13:20:23.200Z,430
2017-05-03T13:21:23.492Z,400
2017-05-03T13:22:23.190Z,410
2017-05-03T13:23:23.494Z,410
2017-05-03T13:24:23.191Z,390
2017-05-03T13:25:23.494Z,325
2017-05-03T13:26:23.491Z,270
2017-05-03T13:27:23.187Z,260
2017-05-03T13:28:23.489Z,235
2017-05-03T13:29:23.181Z,215
2017-05-03T13:30:23.488Z,205
2017-05-03T13:31:23.484Z,215
2017-05-03T13:32:23.484Z,240
2017-05-03T13:33:23.485Z,285
2017-05-03T13:34:23.479Z,350
2017-05-03T13:35:23.474Z,420
2017-05-03T13:36:23.474Z,495
2017-05-03T13:37:23.173Z,540
2017-05-03T13:38:23.177Z,560
2017-05-03T13:39:22.862Z,555
2017-05-03T13:40:23.176Z,560
2017-05-03T13:41:23.459Z,585
2017-05-03T13:42:23.466Z,615
2017-05-03T13:43:23.157Z,615
2017-05-03T13:44:23.818Z,605
2017-05-03T13:45:23.157Z,600
2017-05-03T13:46:23.155Z,575
2017-05-03T13:47:23.153Z,560
2017-05-03T13:48:23.455Z,555
2017-05-03T13:49:23.448Z,560
2017-05-03T13:50:23.149Z,570
2017-05-03T13:51:23.451Z,580
2017-05-03T13:52:23.147Z,595
2017-05-03T13:53:23.445Z,570
2017-05-03T13:54:23.139Z,540
2017-05-03T13:55:23.144Z,510
2017-05-03T13:56:23.444Z,475
2017-05-03T13:57:23.438Z,450
2017-05-03T13:58:23.441Z,450
2017-05-03T13:59:23.461Z,455
2017-05-03T14:00:23.134Z,470
2017-05-03T14:01:23.136Z,495
2017-05-03T14:02:23.479Z,505
2017-05-03T14:03:23.127Z,525
2017-05-03T14:04:23.427Z,540